createdAt,value
2018-06-15T00:00:15.026Z,10.03
2018-06-15T00:02:48.605Z,9.87
2018-06-15T00:05:17.262Z,9.50
2018-06-15T00:07:45.840Z,9.17
2018-06-15T00:10:14.466Z,9.33
2018-06-15T00:12:43.057Z,9.47
2018-06-15T00:15:11.712Z,9.67
2018-06-15T00:17:40.322Z,9.70
2018-06-15T00:20:08.959Z,9.77
2018-06-15T00:22:37.563Z,10.00
2018-06-15T00:25:06.254Z,9.87
2018-06-15T00:27:34.846Z,9.47
2018-06-15T00:30:05.028Z,9.53
2018-06-15T00:32:33.637Z,9.27
2018-06-15T00:35:02.305Z,9.93
2018-06-15T00:37:30.927Z,9.70
2018-06-15T00:39:59.514Z,9.20
2018-06-15T00:42:28.121Z,9.87
2018-06-15T00:44:56.757Z,10.00
2018-06-15T00:47:25.360Z,10.37
2018-06-15T00:49:53.986Z,11.07
2018-06-15T00:52:22.574Z,9.90
2018-06-15T00:54:51.143Z,9.90
2018-06-15T00:57:30.785Z,9.57
2018-06-15T00:59:59.400Z,8.70
2018-06-15T01:02:27.970Z,8.40
2018-06-15T01:04:56.551Z,8.80
2018-06-15T01:07:25.149Z,8.90
2018-06-15T01:09:53.759Z,9.07
2018-06-15T01:12:22.353Z,8.50
2018-06-15T01:14:50.923Z,9.27
2018-06-15T01:17:19.498Z,9.23
2018-06-15T01:19:48.110Z,8.30
2018-06-15T01:22:16.671Z,8.57
2018-06-15T01:24:45.248Z,9.00
2018-06-15T01:27:13.850Z,8.70
2018-06-15T01:29:42.414Z,8.37
2018-06-15T01:32:11.840Z,8.53
2018-06-15T01:34:40.448Z,8.00
2018-06-15T01:37:09.078Z,7.80
2018-06-15T01:39:37.657Z,8.37
2018-06-15T01:42:06.319Z,8.33
2018-06-15T01:44:34.902Z,7.77
2018-06-15T01:47:03.472Z,8.30
2018-06-15T01:49:32.056Z,8.00
2018-06-15T01:52:00.682Z,9.00
2018-06-15T01:54:29.255Z,8.67
2018-06-15T01:56:57.886Z,7.87
2018-06-15T01:59:26.471Z,7.83
2018-06-15T02:01:55.024Z,8.10
2018-06-15T02:04:23.629Z,8.80
2018-06-15T02:06:52.195Z,8.03
2018-06-15T02:09:20.830Z,8.60
2018-06-15T02:11:49.426Z,8.00
2018-06-15T02:14:17.991Z,8.50
2018-06-15T02:16:46.566Z,8.70
2018-06-15T02:19:15.162Z,7.70
2018-06-15T02:21:43.856Z,8.03
2018-06-15T02:24:12.449Z,7.60
2018-06-15T02:26:41.053Z,8.17
2018-06-15T02:29:09.610Z,7.97
2018-06-15T02:31:38.287Z,8.00
2018-06-15T02:34:06.897Z,7.67
2018-06-15T02:36:35.542Z,8.03
2018-06-15T02:39:04.592Z,8.70
2018-06-15T02:41:33.179Z,8.50
2018-06-15T02:44:01.768Z,8.27
2018-06-15T02:46:30.377Z,8.77
2018-06-15T02:48:58.967Z,9.73
2018-06-15T02:51:27.591Z,11.97
2018-06-15T02:53:56.201Z,11.23
2018-06-15T02:56:24.942Z,10.77
2018-06-15T02:58:53.559Z,9.87
2018-06-15T03:01:22.130Z,9.40
2018-06-15T03:03:50.733Z,9.50
2018-06-15T03:06:19.332Z,10.27
2018-06-15T03:08:47.959Z,9.70
2018-06-15T03:11:16.664Z,9.47
2018-06-15T03:13:45.276Z,9.47
2018-06-15T03:16:13.906Z,9.23
2018-06-15T03:18:42.533Z,9.37
2018-06-15T03:21:11.126Z,10.03
2018-06-15T03:23:39.703Z,10.13
2018-06-15T03:26:08.283Z,10.07
2018-06-15T03:28:36.902Z,10.17
2018-06-15T03:31:05.494Z,11.13
2018-06-15T03:33:34.072Z,11.30
2018-06-15T03:36:02.752Z,11.30
2018-06-15T03:38:31.330Z,12.30
2018-06-15T03:40:59.942Z,11.87
2018-06-15T03:43:28.662Z,11.77
2018-06-15T03:45:57.349Z,12.17
2018-06-15T03:48:26.042Z,11.43
2018-06-15T03:50:54.626Z,12.27
2018-06-15T03:53:23.215Z,11.40
2018-06-15T03:55:51.852Z,10.73
2018-06-15T03:58:20.410Z,10.77
2018-06-15T04:00:49.111Z,11.00
2018-06-15T04:03:18.235Z,10.20
2018-06-15T04:06:01.570Z,11.70
2018-06-15T04:08:30.112Z,11.17
2018-06-15T04:10:58.746Z,10.90
2018-06-15T04:13:27.323Z,11.90
2018-06-15T04:15:55.903Z,10.90
2018-06-15T04:18:24.486Z,11.07
2018-06-15T04:20:53.102Z,11.23
2018-06-15T04:23:21.715Z,11.43
2018-06-15T04:25:50.358Z,11.40
2018-06-15T04:28:19.303Z,11.40
2018-06-15T04:30:47.935Z,12.73
2018-06-15T04:33:16.547Z,11.83
2018-06-15T04:35:45.162Z,12.60
2018-06-15T04:38:14.052Z,11.83
2018-06-15T04:40:42.795Z,13.27
2018-06-15T04:43:11.414Z,12.50
2018-06-15T04:45:40.082Z,13.80
2018-06-15T04:48:08.852Z,12.47
2018-06-15T04:50:38.343Z,12.33
2018-06-15T04:53:06.946Z,13.63
2018-06-15T04:55:35.551Z,13.63
2018-06-15T04:58:04.142Z,13.43
2018-06-15T05:00:32.740Z,14.00
2018-06-15T05:03:01.324Z,15.03
2018-06-15T05:05:29.930Z,14.97
2018-06-15T05:07:58.527Z,13.47
2018-06-15T05:10:27.196Z,13.07
2018-06-15T05:12:55.803Z,13.20
2018-06-15T05:15:24.418Z,13.13
2018-06-15T05:17:53.071Z,15.90
2018-06-15T05:20:21.639Z,15.73
2018-06-15T05:22:50.236Z,14.70
2018-06-15T05:25:18.864Z,15.13
2018-06-15T05:27:47.528Z,15.33
2018-06-15T05:30:16.196Z,15.47
2018-06-15T05:32:44.881Z,14.83
2018-06-15T05:35:13.486Z,15.93
2018-06-15T05:37:42.074Z,15.57
2018-06-15T05:40:10.717Z,15.33
2018-06-15T05:42:39.325Z,15.57
2018-06-15T05:45:08.043Z,16.10
2018-06-15T05:47:36.651Z,14.97
2018-06-15T05:50:05.278Z,14.97
2018-06-15T05:52:33.860Z,15.10
2018-06-15T05:55:02.410Z,14.87
2018-06-15T05:57:31.026Z,14.07
2018-06-15T05:59:59.594Z,14.80
2018-06-15T06:02:28.173Z,15.00
2018-06-15T06:04:56.813Z,14.03
2018-06-15T06:07:26.277Z,14.28
2018-06-15T06:09:54.941Z,15.43
2018-06-15T06:12:23.548Z,14.60
2018-06-15T06:14:52.221Z,13.70
2018-06-15T06:17:20.823Z,13.53
2018-06-15T06:19:49.511Z,12.80
2018-06-15T06:22:18.154Z,11.57
2018-06-15T06:24:46.794Z,11.25
2018-06-15T06:27:15.375Z,10.58
2018-06-15T06:29:43.959Z,10.10
2018-06-15T06:32:12.548Z,10.32
2018-06-15T06:34:41.191Z,9.80
2018-06-15T06:37:09.807Z,9.43
2018-06-15T06:39:38.478Z,9.30
2018-06-15T06:42:07.136Z,9.55
2018-06-15T06:44:35.747Z,8.88
2018-06-15T06:47:04.322Z,8.63
2018-06-15T06:49:32.931Z,10.10
2018-06-15T06:52:01.506Z,10.53
2018-06-15T06:54:30.194Z,8.93
2018-06-15T06:56:58.784Z,8.70
2018-06-15T06:59:27.377Z,8.33
2018-06-15T07:01:56.052Z,8.23
2018-06-15T07:04:24.610Z,8.03
2018-06-15T07:06:53.207Z,7.80
2018-06-15T07:09:21.903Z,7.60
2018-06-15T07:11:50.518Z,7.58
2018-06-15T07:14:19.149Z,8.10
2018-06-15T07:16:47.834Z,7.92
2018-06-15T07:19:16.432Z,8.13
2018-06-15T07:21:45.050Z,7.45
2018-06-15T07:24:13.644Z,7.70
2018-06-15T07:26:42.207Z,7.05
2018-06-15T07:29:10.758Z,7.05
2018-06-15T07:31:39.308Z,6.97
2018-06-15T07:34:07.863Z,7.67
2018-06-15T07:36:36.433Z,7.45
2018-06-15T07:39:06.861Z,7.42
2018-06-15T07:41:35.508Z,7.83
2018-06-15T07:44:04.236Z,8.45
2018-06-15T07:46:32.819Z,8.78
2018-06-15T07:49:01.397Z,8.18
2018-06-15T07:51:29.964Z,7.72
2018-06-15T07:53:58.580Z,7.90
2018-06-15T07:56:27.148Z,10.40
2018-06-15T07:58:55.830Z,7.75
2018-06-15T08:01:24.402Z,7.28
2018-06-15T08:03:58.003Z,7.12
2018-06-15T08:06:26.575Z,7.30
2018-06-15T08:08:55.353Z,7.25
2018-06-15T08:11:23.947Z,7.12
2018-06-15T08:13:52.534Z,6.80
2018-06-15T08:16:21.136Z,7.40
2018-06-15T08:18:49.688Z,6.45
2018-06-15T08:21:18.319Z,7.60
2018-06-15T08:23:46.978Z,7.00
2018-06-15T08:26:15.535Z,7.22
2018-06-15T08:28:44.174Z,7.22
2018-06-15T08:31:12.774Z,7.00
2018-06-15T08:33:41.530Z,7.03
2018-06-15T08:36:10.094Z,7.20
2018-06-15T08:38:38.790Z,6.58
2018-06-15T08:41:07.648Z,7.50
2018-06-15T08:43:36.208Z,6.87
2018-06-15T08:46:04.820Z,6.80
2018-06-15T08:48:33.413Z,7.47
2018-06-15T08:51:02.046Z,7.22
2018-06-15T08:53:30.659Z,7.08
2018-06-15T08:55:59.218Z,7.65
2018-06-15T08:58:27.783Z,6.37
2018-06-15T09:00:56.351Z,7.78
2018-06-15T09:03:24.944Z,6.80
2018-06-15T09:05:53.560Z,7.17
2018-06-15T09:08:22.214Z,6.67
2018-06-15T09:10:51.930Z,6.53
2018-06-15T09:13:20.476Z,6.60
2018-06-15T09:15:49.040Z,6.20
2018-06-15T09:18:18.662Z,7.28
2018-06-15T09:20:47.365Z,6.70
2018-06-15T09:23:16.020Z,7.00
2018-06-15T09:25:44.631Z,7.20
2018-06-15T09:28:13.170Z,6.30
2018-06-15T09:30:41.765Z,6.47
2018-06-15T09:33:10.351Z,6.00
2018-06-15T09:35:39.495Z,5.87
2018-06-15T09:38:08.102Z,6.47
2018-06-15T09:40:36.702Z,6.42
2018-06-15T09:43:05.294Z,6.00
2018-06-15T09:45:34.040Z,6.87
2018-06-15T09:48:02.692Z,6.03
2018-06-15T09:50:31.250Z,6.47
2018-06-15T09:52:59.875Z,6.40
2018-06-15T09:55:28.975Z,5.92
2018-06-15T09:57:57.616Z,6.05
2018-06-15T10:00:31.397Z,6.10
2018-06-15T10:02:59.986Z,6.20
2018-06-15T10:05:28.640Z,5.65
2018-06-15T10:07:57.237Z,5.30
2018-06-15T10:10:25.806Z,6.10
2018-06-15T10:12:54.394Z,5.78
2018-06-15T10:15:22.933Z,5.78
2018-06-15T10:17:51.627Z,5.90
2018-06-15T10:20:20.307Z,5.80
2018-06-15T10:22:48.900Z,5.90
2018-06-15T10:25:17.554Z,5.87
2018-06-15T10:27:46.213Z,6.42
2018-06-15T10:30:14.807Z,5.85
2018-06-15T10:32:43.683Z,6.17
2018-06-15T10:35:12.323Z,6.80
2018-06-15T10:37:40.893Z,7.05
2018-06-15T10:40:09.544Z,7.75
2018-06-15T10:42:38.114Z,7.37
2018-06-15T10:45:06.779Z,7.87
2018-06-15T10:47:35.353Z,7.42
2018-06-15T10:50:04.040Z,6.65
2018-06-15T10:52:32.666Z,6.55
2018-06-15T10:55:01.349Z,6.37
2018-06-15T10:57:29.950Z,6.17
2018-06-15T10:59:58.523Z,5.00
2018-06-15T11:02:27.248Z,5.15
2018-06-15T11:04:55.834Z,5.40
2018-06-15T11:07:24.468Z,5.30
2018-06-15T11:09:53.128Z,5.35
2018-06-15T11:12:21.745Z,5.17
2018-06-15T11:14:50.492Z,5.67
2018-06-15T11:17:19.082Z,5.80
2018-06-15T11:19:47.727Z,5.58
2018-06-15T11:22:16.274Z,6.50
2018-06-15T11:24:44.899Z,6.43
2018-06-15T11:27:13.517Z,7.70
2018-06-15T11:29:42.130Z,8.70
2018-06-15T11:32:10.821Z,9.20
2018-06-15T11:34:39.445Z,8.47
2018-06-15T11:37:08.140Z,7.60
2018-06-15T11:39:36.805Z,7.17
2018-06-15T11:42:05.486Z,7.53
2018-06-15T11:44:34.147Z,7.13
2018-06-15T11:47:02.736Z,7.30
2018-06-15T11:49:31.356Z,5.80
2018-06-15T11:52:00.058Z,5.30
2018-06-15T11:54:28.720Z,5.00
2018-06-15T11:56:57.319Z,4.50
2018-06-15T11:59:26.171Z,4.23
2018-06-15T12:01:54.782Z,4.20
2018-06-15T12:04:23.334Z,4.27
2018-06-15T12:06:51.908Z,5.17
2018-06-15T12:09:20.497Z,4.20
2018-06-15T12:11:49.084Z,4.50
2018-06-15T12:14:17.710Z,5.40
2018-06-15T12:16:46.298Z,4.63
2018-06-15T12:19:14.998Z,3.90
2018-06-15T12:21:43.542Z,4.27
2018-06-15T12:24:12.103Z,4.77
2018-06-15T12:26:40.705Z,6.00
2018-06-15T12:29:09.362Z,6.33
2018-06-15T12:31:38.576Z,6.73
2018-06-15T12:34:07.280Z,6.73
2018-06-15T12:36:35.889Z,6.20
2018-06-15T12:39:06.511Z,6.47
2018-06-15T12:41:35.119Z,6.90
2018-06-15T12:44:03.746Z,6.90
2018-06-15T12:46:32.339Z,6.40
2018-06-15T12:49:00.927Z,6.43
2018-06-15T12:51:29.507Z,6.47
2018-06-15T12:53:58.162Z,6.47
2018-06-15T12:56:27.038Z,6.97
2018-06-15T12:58:55.613Z,6.40
2018-06-15T13:01:24.173Z,6.63
2018-06-15T13:03:52.792Z,6.47
2018-06-15T13:06:21.337Z,7.30
2018-06-15T13:08:49.931Z,6.30
2018-06-15T13:11:18.595Z,6.80
2018-06-15T13:13:47.182Z,6.80
2018-06-15T13:16:15.787Z,6.90
2018-06-15T13:18:44.363Z,7.87
2018-06-15T13:21:12.933Z,6.93
2018-06-15T13:23:41.582Z,6.00
2018-06-15T13:26:10.132Z,5.60
2018-06-15T13:28:38.776Z,5.23
2018-06-15T13:31:07.550Z,4.70
2018-06-15T13:33:36.097Z,5.87
2018-06-15T13:36:06.039Z,6.23
2018-06-15T13:38:34.620Z,5.83
2018-06-15T13:41:03.325Z,7.50
2018-06-15T13:43:31.891Z,5.13
2018-06-15T13:46:00.485Z,5.20
2018-06-15T13:48:29.155Z,5.07
2018-06-15T13:50:57.833Z,5.27
2018-06-15T13:53:26.495Z,5.10
2018-06-15T13:55:55.043Z,5.87
2018-06-15T13:58:23.632Z,5.03
2018-06-15T14:00:52.246Z,5.80
2018-06-15T14:03:21.088Z,6.00
2018-06-15T14:05:49.751Z,5.33
2018-06-15T14:08:18.358Z,5.53
2018-06-15T14:10:46.950Z,5.00
2018-06-15T14:13:15.771Z,5.83
2018-06-15T14:15:44.328Z,5.00
2018-06-15T14:18:12.882Z,6.33
2018-06-15T14:20:41.550Z,5.93
2018-06-15T14:23:10.553Z,6.00
2018-06-15T14:25:39.140Z,5.70
2018-06-15T14:28:08.421Z,6.03
2018-06-15T14:30:37.073Z,6.27
2018-06-15T14:33:05.686Z,4.87
2018-06-15T14:35:34.326Z,5.33
2018-06-15T14:38:02.891Z,4.83
2018-06-15T14:40:31.825Z,4.80
2018-06-15T14:43:00.376Z,4.40
2018-06-15T14:45:28.919Z,4.73
2018-06-15T14:47:57.495Z,5.83
2018-06-15T14:50:26.035Z,5.30
2018-06-15T14:52:54.688Z,4.60
2018-06-15T14:55:23.295Z,4.60
2018-06-15T14:57:51.866Z,4.67
2018-06-15T15:00:20.463Z,4.40
2018-06-15T15:02:49.119Z,4.87
2018-06-15T15:05:17.775Z,4.57
2018-06-15T15:07:46.455Z,4.60
2018-06-15T15:10:15.057Z,4.93
2018-06-15T15:12:43.623Z,5.00
2018-06-15T15:15:12.216Z,5.37
2018-06-15T15:17:40.820Z,4.47
2018-06-15T15:20:09.432Z,5.20
2018-06-15T15:22:38.083Z,4.50
2018-06-15T15:25:06.722Z,4.67
2018-06-15T15:27:35.403Z,4.47
2018-06-15T15:30:06.123Z,4.90
2018-06-15T15:32:34.690Z,5.60
2018-06-15T15:35:03.677Z,6.10
2018-06-15T15:37:32.251Z,6.07
2018-06-15T15:40:00.853Z,6.60
2018-06-15T15:42:29.433Z,6.90
2018-06-15T15:44:58.112Z,6.47
2018-06-15T15:47:26.701Z,6.23
2018-06-15T15:49:55.310Z,6.50
2018-06-15T15:52:24.022Z,5.97
2018-06-15T15:54:52.631Z,6.13
2018-06-15T15:57:21.476Z,5.83
2018-06-15T15:59:50.082Z,6.23
2018-06-15T16:02:18.733Z,6.00
2018-06-15T16:04:47.636Z,5.13
2018-06-15T16:07:17.288Z,6.13
2018-06-15T16:09:46.152Z,4.90
2018-06-15T16:12:14.772Z,5.30
2018-06-15T16:14:43.393Z,5.27
2018-06-15T16:17:12.506Z,5.40
2018-06-15T16:19:41.459Z,5.70
2018-06-15T16:22:10.934Z,5.00
2018-06-15T16:24:39.540Z,5.33
2018-06-15T16:27:08.336Z,5.13
2018-06-15T16:29:36.926Z,4.87
2018-06-15T16:32:05.605Z,5.10
2018-06-15T16:34:34.261Z,5.57
2018-06-15T16:37:02.911Z,4.60
2018-06-15T16:39:31.463Z,5.00
2018-06-15T16:42:00.092Z,5.97
2018-06-15T16:44:28.714Z,7.83
2018-06-15T16:46:57.335Z,11.50
2018-06-15T16:49:25.936Z,9.33
2018-06-15T16:51:54.991Z,10.67
2018-06-15T16:54:23.609Z,8.17
2018-06-15T16:56:52.469Z,8.43
2018-06-15T16:59:21.087Z,8.80
2018-06-15T17:01:49.679Z,9.73
2018-06-15T17:04:18.292Z,10.50
2018-06-15T17:06:46.958Z,10.20
2018-06-15T17:09:15.547Z,11.57
2018-06-15T17:11:44.138Z,10.70
2018-06-15T17:14:12.721Z,12.27
2018-06-15T17:16:41.315Z,12.03
2018-06-15T17:19:09.970Z,12.83
2018-06-15T17:21:38.582Z,13.00
2018-06-15T17:24:07.204Z,13.03
2018-06-15T17:26:35.808Z,12.20
2018-06-15T17:29:04.806Z,12.87
2018-06-15T17:31:33.436Z,12.27
2018-06-15T17:34:02.039Z,13.00
2018-06-15T17:36:30.760Z,12.73
2018-06-15T17:38:59.327Z,13.57
2018-06-15T17:41:28.201Z,13.17
2018-06-15T17:43:56.802Z,13.87
2018-06-15T17:46:25.737Z,13.20
2018-06-15T17:48:54.535Z,11.27
2018-06-15T17:51:23.156Z,11.17
2018-06-15T17:53:52.194Z,11.87
2018-06-15T17:56:20.860Z,12.73
2018-06-15T17:58:49.740Z,13.20
2018-06-15T18:01:18.360Z,12.63
2018-06-15T18:03:47.141Z,11.80
2018-06-15T18:06:15.875Z,11.07
2018-06-15T18:08:44.458Z,11.63
2018-06-15T18:11:13.426Z,15.20
2018-06-15T18:13:42.080Z,9.47
2018-06-15T18:16:10.746Z,11.23
2018-06-15T18:18:39.315Z,12.87
2018-06-15T18:21:08.087Z,12.43
2018-06-15T18:23:36.714Z,14.80
2018-06-15T18:26:05.406Z,14.17
2018-06-15T18:28:34.046Z,13.60
2018-06-15T18:31:02.643Z,14.37
2018-06-15T18:33:31.587Z,13.77
2018-06-15T18:36:00.289Z,14.73
2018-06-15T18:38:29.250Z,15.80
2018-06-15T18:40:57.861Z,15.20
2018-06-15T18:43:26.662Z,14.57
2018-06-15T18:45:55.716Z,14.40
2018-06-15T18:48:25.974Z,14.13
2018-06-15T18:50:54.789Z,11.70
2018-06-15T18:53:23.452Z,10.70
2018-06-15T18:55:52.043Z,9.40
2018-06-15T18:58:20.983Z,10.70
2018-06-15T19:00:49.624Z,9.50
2018-06-15T19:03:18.258Z,9.87
2018-06-15T19:05:46.914Z,11.30
2018-06-15T19:08:15.503Z,12.70
2018-06-15T19:10:44.447Z,12.40
2018-06-15T19:13:13.077Z,10.63
2018-06-15T19:15:41.856Z,9.60
2018-06-15T19:18:10.450Z,10.43
2018-06-15T19:20:39.178Z,9.40
2018-06-15T19:23:07.904Z,10.20
2018-06-15T19:25:36.833Z,9.17
2018-06-15T19:28:05.643Z,9.67
2018-06-15T19:30:34.278Z,9.13
2018-06-15T19:33:02.900Z,8.50
2018-06-15T19:35:31.754Z,9.00
2018-06-15T19:38:00.540Z,9.03
2018-06-15T19:40:29.288Z,8.87
2018-06-15T19:42:58.072Z,8.10
2018-06-15T19:45:27.111Z,8.30
2018-06-15T19:47:55.891Z,9.90
2018-06-15T19:50:24.495Z,8.53
2018-06-15T19:52:53.166Z,8.37
2018-06-15T19:55:21.834Z,7.90
2018-06-15T19:57:50.415Z,8.30
2018-06-15T20:00:20.259Z,7.43
2018-06-15T20:02:48.926Z,7.73
2018-06-15T20:05:17.535Z,7.70
2018-06-15T20:07:46.126Z,7.40
2018-06-15T20:10:14.726Z,8.00
2018-06-15T20:12:43.332Z,7.87
2018-06-15T20:15:11.939Z,7.70
2018-06-15T20:17:40.528Z,9.23
2018-06-15T20:20:09.182Z,9.10
2018-06-15T20:22:38.156Z,7.40
2018-06-15T20:25:07.521Z,7.00
2018-06-15T20:27:36.249Z,7.70
2018-06-15T20:30:06.475Z,7.17
2018-06-15T20:32:35.050Z,7.13
2018-06-15T20:35:03.672Z,6.80
2018-06-15T20:37:32.312Z,7.37
2018-06-15T20:40:00.947Z,6.83
2018-06-15T20:42:29.570Z,7.20
2018-06-15T20:44:58.177Z,6.73
2018-06-15T20:47:26.797Z,7.53
2018-06-15T20:49:55.552Z,6.63
2018-06-15T20:52:24.155Z,7.87
2018-06-15T20:54:53.122Z,7.60
2018-06-15T20:57:21.750Z,7.47
2018-06-15T20:59:50.396Z,7.60
2018-06-15T21:02:19.184Z,8.33
2018-06-15T21:04:47.783Z,7.07
2018-06-15T21:07:16.408Z,7.43
2018-06-15T21:09:45.047Z,8.20
2018-06-15T21:12:13.655Z,7.53
2018-06-15T21:14:42.680Z,6.90
2018-06-15T21:17:11.330Z,7.70
2018-06-15T21:19:39.961Z,7.37
2018-06-15T21:22:08.539Z,7.80
2018-06-15T21:24:37.112Z,7.23
2018-06-15T21:27:05.793Z,7.23
2018-06-15T21:29:34.384Z,7.97
2018-06-15T21:32:02.989Z,7.13
2018-06-15T21:34:31.658Z,8.20
2018-06-15T21:37:00.247Z,8.40
2018-06-15T21:39:29.822Z,8.53
2018-06-15T21:41:58.439Z,7.73
2018-06-15T21:44:26.994Z,7.83
2018-06-15T21:46:55.607Z,7.97
2018-06-15T21:49:24.146Z,8.00
2018-06-15T21:51:52.741Z,7.73
2018-06-15T21:54:21.323Z,6.90
2018-06-15T21:56:49.986Z,6.10
2018-06-15T21:59:18.650Z,6.23
2018-06-15T22:01:47.323Z,6.27
2018-06-15T22:04:15.893Z,6.20
2018-06-15T22:06:44.455Z,6.77
2018-06-15T22:09:13.056Z,6.20
2018-06-15T22:11:41.639Z,6.57
2018-06-15T22:14:10.206Z,5.90
2018-06-15T22:16:44.019Z,6.20
2018-06-15T22:19:12.624Z,5.60
2018-06-15T22:21:41.208Z,5.63
2018-06-15T22:24:09.810Z,5.57
2018-06-15T22:26:38.412Z,5.63
2018-06-15T22:29:07.050Z,6.00
2018-06-15T22:31:35.719Z,6.17
2018-06-15T22:34:04.329Z,5.63
2018-06-15T22:36:32.931Z,5.57
2018-06-15T22:39:01.528Z,6.10
2018-06-15T22:41:30.150Z,6.57
2018-06-15T22:43:58.779Z,6.40
2018-06-15T22:46:27.328Z,6.70
2018-06-15T22:48:56.026Z,6.63
2018-06-15T22:51:24.602Z,6.77
2018-06-15T22:53:53.166Z,6.87
2018-06-15T22:56:21.755Z,6.80
2018-06-15T22:58:50.377Z,6.77
2018-06-15T23:01:19.040Z,6.80
2018-06-15T23:03:47.711Z,6.90
2018-06-15T23:06:16.375Z,7.40
2018-06-15T23:08:44.926Z,6.80
2018-06-15T23:11:13.551Z,6.90
2018-06-15T23:13:42.138Z,6.73
2018-06-15T23:16:10.743Z,6.77
2018-06-15T23:18:39.299Z,6.53
2018-06-15T23:21:08.004Z,6.80
2018-06-15T23:23:36.595Z,7.33
2018-06-15T23:26:05.215Z,7.10
2018-06-15T23:28:33.770Z,6.70
2018-06-15T23:31:02.357Z,6.90
2018-06-15T23:33:30.931Z,7.37
2018-06-15T23:35:59.502Z,7.00
2018-06-15T23:38:28.137Z,7.83
2018-06-15T23:40:56.762Z,9.63
2018-06-15T23:43:25.363Z,9.20
2018-06-15T23:45:54.286Z,8.97
2018-06-15T23:48:22.867Z,9.57
2018-06-15T23:50:51.475Z,9.47
2018-06-15T23:53:20.123Z,12.20
2018-06-15T23:55:48.700Z,10.93
2018-06-15T23:58:17.327Z,9.27
